Flight Track Log - Related Links

Times and Time Zones

All times are in EST time to prevent confusion due to time zone crossing. See the N41173 flight status page for this flight to view local times or setup timezone preferences in your user account.

Time Position Orientation Groundspeed Altitude Reporting Facility
EST Latitude Longitude Course Direction KTS MPH feet Rate Location/Type
Wed 05:13:59 PM 40.9333 -74.2000 14° North 185 213 6,000  Level New York TRACON
Wed 05:14:59 PM 40.9833 -74.1833 14° North 186 214 6,000  Level New York TRACON
Wed 05:15:59 PM 41.0333 -74.1667 14° North 189 217 6,000  Level New York TRACON
Wed 05:16:59 PM 41.0833 -74.1500 14° North 187 215 6,000  Level New York TRACON
Wed 05:17:59 PM 41.1333 -74.1333 14° North 192 221 6,000 -100 Level New York TRACON
Wed 05:18:59 PM 41.1833 -74.0833 37° Northeast 219 252 5,800 -400 Descending New York TRACON
Wed 05:19:59 PM 41.2000 -74.0000 75° East 235 270 5,200 -400 Descending New York TRACON
Wed 05:20:59 PM 41.2000 -73.9167 90° East 229 264 5,000  Descending New York TRACON
Wed 05:21:59 PM 41.2167 -73.8333 75° East 217 250 5,200 100 Climbing New York TRACON
Wed 05:22:59 PM 41.2333 -73.7667 72° East 215 247 5,200 -50 Level New York TRACON
Wed 05:23:59 PM 41.2500 -73.6833 75° East 211 243 5,100  Descending New York TRACON
Wed 05:24:59 PM 41.2667 -73.6167 72° East 205 236 5,200  Climbing New York TRACON
Wed 05:25:59 PM 41.2833 -73.5500 72° East 207 238 5,100  Descending New York TRACON
Wed 05:26:59 PM 41.2667 -73.4667 105° East 207 238 5,200 50 Climbing New York TRACON
Wed 05:27:59 PM 41.2500 -73.4000 108° East 208 239 5,200  Level New York TRACON
Wed 05:28:59 PM 41.2333 -73.3167 105° East 210 242 5,200  Level New York TRACON
Wed 05:29:59 PM 41.2167 -73.2500 108° East 205 236 5,200  Level New York TRACON
Wed 05:30:59 PM 41.1833 -73.1833 124° Southeast 207 238 5,200 -50 Level New York TRACON
Wed 05:31:59 PM 41.1667 -73.1167 108° East 208 239 5,100  Descending New York TRACON
Wed 05:32:53 PM 41.1500 -73.0500 108° East 211 243 5,200  Climbing New York TRACON
Wed 05:33:53 PM 41.1333 -72.9833 108° East 210 242 5,100 -50 Descending New York TRACON
Wed 05:34:53 PM 41.1000 -72.9000 118° Southeast 215 247 5,100  Level New York TRACON
Wed 05:35:53 PM 41.0833 -72.8333 108° East 205 236 5,100 -50 Level New York TRACON
Wed 05:36:53 PM 41.0500 -72.8000 143° Southeast 188 216 5,000 -700 Descending New York TRACON
Wed 05:37:53 PM 41.0000 -72.8167 194° South 184 212 3,700 -800 Descending New York TRACON
Wed 05:38:53 PM 40.9667 -72.8667 229° Southwest 157 181 3,400 -350 Descending New York TRACON
Wed 05:39:53 PM 40.9500 -72.9000 237° Southwest 150 173 3,000 -600 Descending New York TRACON
Wed 05:40:53 PM 40.9167 -72.9500 229° Southwest 159 183 2,200 -400 Descending New York TRACON
Wed 05:41:53 PM 40.8833 -72.9833 217° Southwest 133 153 2,200 -100 Level New York TRACON
Wed 05:42:53 PM 40.8667 -73.0167 237° Southwest 109 125 2,000 -368 Descending New York TRACON
Wed 05:43:47 PM 40.8500 -73.0333 217° Southwest 104 120 1,500 -522 Descending New York TRACON
Wed 05:44:48 PM 40.8333 -73.0667 237° Southwest 102 117 1,000 -567 Descending New York TRACON
Wed 05:45:54 PM 40.8000 -73.0833 201° Southwest 104 120 300 -636 Descending New York TRACON
Wed 05:47:00 PM 40.8089 -73.0377 76° East  Level Estimated
Wed 05:54:00 PM 40.8653 -72.7470 76° East  Level Estimated
Wed 05:55:00 PM 40.8733 -72.7054 76° East  Level Estimated
Wed 05:56:00 PM 40.8813 -72.6638 76° East  Level Estimated
Wed 05:57:00 PM 40.8892 -72.6222 76° East  Level Estimated
Wed 05:58:00 PM 40.8972 -72.5806 76° East  Level Estimated
Wed 05:59:00 PM 40.9051 -72.5390 76° East  Level Estimated
Wed 06:00:00 PM 40.9130 -72.4974 76° East  Level Estimated
Wed 06:01:00 PM 40.9209 -72.4558 76° East  Level Estimated
Wed 06:02:00 PM 40.9288 -72.4141 76° East  Level Estimated
Wed 06:03:00 PM 40.9367 -72.3725 76° East  Level Estimated
Wed 06:04:00 PM 40.9445 -72.3308 76° East  Level Estimated
Wed 06:05:00 PM 40.9524 -72.2891 76° East  Level Estimated
Wed 06:06:00 PM 40.9594 -72.2517 76° East  Level Estimated
Wed 06:07:00 PM 40.9594 -72.2517 143° Southeast  Level Estimated
Wed 06:08:00 PM 40.9594 -72.2517 143° Southeast  Level Estimated
Wed 06:09:00 PM 40.9594 -72.2517 143° Southeast  Level Estimated
Wed 06:10:00 PM 40.9594 -72.2517 143° Southeast  Level Estimated
Wed 06:11:00 PM 40.9594 -72.2517 143° Southeast  Level Estimated
Wed 06:12:00 PM 40.9594 -72.2517 143° Southeast  Level Estimated
Wed 06:13:00 PM 40.9594 -72.2517 143° Southeast  Level Estimated
Wed 06:14:00 PM 40.9594 -72.2517 143° Southeast  Level Estimated
Wed 06:15:00 PM 40.9594 -72.2517 143° Southeast  Level Estimated
Wed 06:16:00 PM 40.9594 -72.2517 143° Southeast  Level Estimated
Wed 06:17:00 PM 40.9594 -72.2517 143° Southeast  Level Estimated
Wed 06:18:00 PM 40.9594 -72.2517 143° Southeast  Level Estimated
Wed 06:19:00 PM 40.9594 -72.2517 143° Southeast  Level Estimated
Wed 06:20:00 PM 40.9594 -72.2517 143° Southeast  Level Estimated
Wed 06:21:00 PM 40.9594 -72.2517 143° Southeast  Level Estimated
Wed 06:22:00 PM 40.9594 -72.2517 143° Southeast  Level Estimated
Wed 06:23:00 PM 40.9594 -72.2517 143° Southeast  Level Estimated
Wed 06:24:00 PM 40.9594 -72.2517 143° Southeast  Level Estimated
Wed 06:25:00 PM 40.9594 -72.2517 143° Southeast  Level Estimated
Wed 06:26:00 PM 40.9594 -72.2517 143° Southeast  Level Estimated
Wed 06:27:00 PM 40.9594 -72.2517 143° Southeast  Level Estimated
Wed 06:28:00 PM 40.9594 -72.2517 143° Southeast  Level Estimated
Wed 06:29:00 PM 40.9594 -72.2517 143° Southeast  Level Estimated
Wed 06:30:00 PM 40.9594 -72.2517 143° Southeast  Level Estimated

Login

Don't have an account? Register now (free) for customized features, flight alerts, and more!